createdAt,value
2019-02-18T00:01:27.932Z,94.60
2019-02-18T00:04:01.930Z,94.50
2019-02-18T00:06:35.468Z,94.80
2019-02-18T00:09:09.624Z,95.00
2019-02-18T00:11:44.393Z,95.20
2019-02-18T00:14:18.805Z,95.00
2019-02-18T00:16:52.347Z,95.00
2019-02-18T00:19:26.663Z,95.00
2019-02-18T00:22:03.525Z,94.90
2019-02-18T00:24:39.602Z,94.70
2019-02-18T00:27:13.655Z,94.30
2019-02-18T00:29:48.867Z,94.00
2019-02-18T00:32:22.624Z,94.00
2019-02-18T00:34:56.617Z,93.70
2019-02-18T00:37:30.094Z,93.90
2019-02-18T00:40:04.267Z,93.80
2019-02-18T00:42:37.943Z,93.70
2019-02-18T00:45:12.373Z,93.70
2019-02-18T00:47:48.161Z,93.50
2019-02-18T00:50:23.195Z,93.40
2019-02-18T00:52:56.615Z,93.20
2019-02-18T00:55:30.147Z,93.10
2019-02-18T00:58:06.311Z,93.00
2019-02-18T01:00:43.047Z,93.00
2019-02-18T01:03:17.719Z,92.90
2019-02-18T01:05:51.841Z,93.10
2019-02-18T01:08:25.674Z,93.10
2019-02-18T01:11:01.755Z,93.20
2019-02-18T01:13:35.283Z,93.40
2019-02-18T01:16:09.375Z,93.30
2019-02-18T01:18:45.561Z,93.50
2019-02-18T01:21:22.216Z,93.10
2019-02-18T01:23:58.830Z,93.10
2019-02-18T01:26:37.908Z,93.20
2019-02-18T01:29:15.545Z,93.30
2019-02-18T01:31:49.111Z,93.50
2019-02-18T01:34:22.685Z,93.60
2019-02-18T01:36:56.585Z,94.10
2019-02-18T01:39:30.109Z,94.20
2019-02-18T01:42:03.998Z,93.90
2019-02-18T01:44:39.613Z,93.80
2019-02-18T01:47:13.551Z,93.90
2019-02-18T01:49:47.203Z,94.00
2019-02-18T01:52:21.481Z,94.30
2019-02-18T01:54:54.967Z,94.20
2019-02-18T01:57:29.055Z,93.90
2019-02-18T02:00:02.553Z,93.70
2019-02-18T02:02:37.264Z,93.60
2019-02-18T02:05:12.282Z,93.60
2019-02-18T02:07:56.543Z,93.60
2019-02-18T02:10:29.097Z,93.50
2019-02-18T02:13:29.626Z,93.70
2019-02-18T02:16:05.035Z,93.40
2019-02-18T02:18:39.188Z,93.50
2019-02-18T02:21:14.115Z,93.90
2019-02-18T02:23:50.744Z,93.90
2019-02-18T02:26:27.588Z,93.90
2019-02-18T02:29:03.556Z,94.10
2019-02-18T02:31:38.012Z,94.60
2019-02-18T02:34:11.996Z,94.30
2019-02-18T02:36:46.146Z,94.20
2019-02-18T02:39:19.693Z,94.20
2019-02-18T02:41:53.161Z,94.40
2019-02-18T02:44:28.111Z,94.70
2019-02-18T02:47:01.685Z,95.10
2019-02-18T02:49:35.699Z,95.40
2019-02-18T02:52:09.315Z,95.50
2019-02-18T02:54:43.896Z,95.40
2019-02-18T02:57:17.426Z,95.50
2019-02-18T02:59:51.550Z,95.60
2019-02-18T03:02:26.388Z,95.60
2019-02-18T03:05:00.491Z,95.60
2019-02-18T03:07:36.496Z,95.80
2019-02-18T03:10:12.337Z,95.80
2019-02-18T03:12:47.668Z,95.80
2019-02-18T03:15:22.258Z,96.00
2019-02-18T03:17:56.074Z,95.90
2019-02-18T03:20:30.757Z,96.00
2019-02-18T03:23:12.550Z,95.80
2019-02-18T03:25:48.435Z,95.70
2019-02-18T03:29:16.366Z,95.70
2019-02-18T03:31:49.941Z,95.90
2019-02-18T03:34:31.118Z,95.90
2019-02-18T03:37:05.200Z,96.00
2019-02-18T03:39:38.803Z,96.20
2019-02-18T03:42:12.184Z,96.30
2019-02-18T03:44:48.169Z,96.30
2019-02-18T03:47:22.130Z,96.30
2019-02-18T03:49:55.655Z,96.10
2019-02-18T03:52:29.774Z,95.60
2019-02-18T03:55:03.292Z,95.50
2019-02-18T03:57:37.367Z,95.60
2019-02-18T04:00:10.932Z,95.50
2019-02-18T04:02:45.042Z,95.50
2019-02-18T04:05:18.823Z,95.40
2019-02-18T04:07:54.369Z,95.30
2019-02-18T04:10:32.581Z,95.30
2019-02-18T04:13:06.557Z,95.20
2019-02-18T04:15:40.404Z,95.20
2019-02-18T04:18:14.706Z,95.20
2019-02-18T04:20:48.224Z,95.00
2019-02-18T04:23:22.220Z,95.10
2019-02-18T04:25:55.675Z,94.90
2019-02-18T04:28:32.474Z,94.90
2019-02-18T04:31:06.262Z,94.90
2019-02-18T04:33:40.331Z,94.90
2019-02-18T04:36:13.914Z,95.00
2019-02-18T04:38:54.105Z,95.10
2019-02-18T04:41:25.147Z,95.20
2019-02-18T04:43:59.143Z,95.20
2019-02-18T04:46:32.706Z,95.20
2019-02-18T04:49:06.777Z,95.10
2019-02-18T04:51:40.265Z,95.00
2019-02-18T04:54:13.927Z,94.80
2019-02-18T04:56:47.452Z,94.50
2019-02-18T04:59:21.571Z,94.30
2019-02-18T05:01:55.444Z,94.60
2019-02-18T05:04:32.138Z,94.70
2019-02-18T05:07:05.744Z,94.50
2019-02-18T05:09:40.274Z,94.40
2019-02-18T05:12:14.313Z,94.50
2019-02-18T05:14:48.383Z,94.60
2019-02-18T05:17:22.026Z,94.70
2019-02-18T05:19:56.108Z,95.20
2019-02-18T05:22:29.617Z,95.70
2019-02-18T05:25:03.734Z,95.70
2019-02-18T05:27:36.902Z,95.40
2019-02-18T05:30:14.214Z,95.00
2019-02-18T05:32:51.167Z,94.70
2019-02-18T05:35:24.796Z,94.50
2019-02-18T05:37:59.927Z,94.70
2019-02-18T05:40:34.032Z,95.00
2019-02-18T05:43:07.639Z,95.20
2019-02-18T05:45:42.529Z,95.40
2019-02-18T05:48:16.111Z,95.60
2019-02-18T05:50:51.871Z,95.40
2019-02-18T05:53:25.733Z,95.30
2019-02-18T05:56:00.968Z,95.10
2019-02-18T05:58:34.612Z,95.00
2019-02-18T06:01:08.747Z,94.70
2019-02-18T06:03:42.606Z,94.30
2019-02-18T06:06:16.898Z,94.40
2019-02-18T06:08:51.236Z,94.20
2019-02-18T06:11:26.366Z,94.50
2019-02-18T06:14:00.931Z,94.80
2019-02-18T06:16:34.927Z,95.30
2019-02-18T06:19:08.529Z,95.50
2019-02-18T06:21:42.761Z,95.70
2019-02-18T06:24:16.601Z,95.70
2019-02-18T06:26:50.856Z,95.70
2019-02-18T06:29:25.218Z,95.60
2019-02-18T06:32:08.189Z,95.30
2019-02-18T06:34:42.826Z,95.10
2019-02-18T06:37:17.697Z,94.90
2019-02-18T06:39:51.841Z,94.70
2019-02-18T06:42:27.311Z,94.50
2019-02-18T06:45:14.611Z,94.40
2019-02-18T06:47:52.921Z,94.30
2019-02-18T06:50:27.085Z,94.00
2019-02-18T06:53:08.183Z,93.60
2019-02-18T06:55:45.788Z,93.10
2019-02-18T06:58:44.932Z,92.80
2019-02-18T07:01:44.375Z,92.70
2019-02-18T07:04:39.449Z,92.60
2019-02-18T07:07:54.326Z,92.30
2019-02-18T07:10:39.107Z,92.10
2019-02-18T07:13:14.741Z,91.50
2019-02-18T07:15:49.825Z,91.30
2019-02-18T07:18:24.277Z,91.30
2019-02-18T07:20:59.107Z,91.30
2019-02-18T07:23:33.873Z,91.60
2019-02-18T07:26:10.555Z,91.30
2019-02-18T07:28:45.475Z,91.10
2019-02-18T07:31:20.415Z,91.10
2019-02-18T07:33:57.691Z,90.90
2019-02-18T07:36:30.875Z,90.80
2019-02-18T07:39:10.380Z,90.80
2019-02-18T07:41:48.505Z,91.00
2019-02-18T07:44:27.981Z,90.90
2019-02-18T07:47:04.148Z,90.50
2019-02-18T07:49:43.539Z,90.40
2019-02-18T07:52:19.172Z,90.40
2019-02-18T07:54:53.553Z,90.10
2019-02-18T07:57:28.803Z,90.10
2019-02-18T08:00:05.702Z,90.00
2019-02-18T08:02:50.532Z,89.80
2019-02-18T08:05:33.427Z,89.70
2019-02-18T08:08:13.789Z,89.30
2019-02-18T08:10:53.693Z,89.00
2019-02-18T08:13:30.212Z,89.20
2019-02-18T08:16:12.404Z,88.70
2019-02-18T08:18:56.325Z,88.10
2019-02-18T08:21:32.302Z,87.80
2019-02-18T08:24:12.016Z,87.70
2019-02-18T08:26:51.886Z,89.00
2019-02-18T08:29:31.629Z,89.70
2019-02-18T08:32:13.313Z,89.70
2019-02-18T08:34:54.861Z,90.00
2019-02-18T08:37:30.367Z,90.30
2019-02-18T08:40:05.913Z,90.40
2019-02-18T08:42:59.635Z,91.00
2019-02-18T08:45:34.499Z,91.50
2019-02-18T08:48:08.986Z,91.50
2019-02-18T08:50:43.755Z,91.80
2019-02-18T08:53:18.659Z,92.70
2019-02-18T08:55:53.570Z,92.80
2019-02-18T08:58:28.169Z,92.60
2019-02-18T09:01:07.223Z,92.30
2019-02-18T09:03:47.341Z,92.30
2019-02-18T09:06:22.043Z,92.50
2019-02-18T09:08:58.406Z,93.40
2019-02-18T09:11:34.665Z,93.50
2019-02-18T09:14:10.537Z,93.60
2019-02-18T09:16:45.529Z,93.00
2019-02-18T09:19:20.885Z,92.80
2019-02-18T09:22:08.283Z,92.50
2019-02-18T09:24:49.633Z,92.50
2019-02-18T09:27:25.320Z,92.10
2019-02-18T09:30:03.942Z,92.00
2019-02-18T09:32:43.987Z,91.30
2019-02-18T09:35:23.288Z,91.30
2019-02-18T09:37:57.734Z,91.50
2019-02-18T09:40:43.914Z,91.60
2019-02-18T09:43:09.676Z,91.00
2019-02-18T09:45:44.130Z,90.30
2019-02-18T09:48:19.070Z,89.90
2019-02-18T09:50:53.435Z,89.90
2019-02-18T09:53:28.128Z,89.50
2019-02-18T09:56:01.614Z,89.60
2019-02-18T09:58:37.609Z,89.20
2019-02-18T10:01:13.188Z,87.50
2019-02-18T10:03:56.779Z,87.40
2019-02-18T10:06:32.330Z,85.20
2019-02-18T10:09:08.026Z,85.80
2019-02-18T10:11:43.479Z,85.80
2019-02-18T10:14:17.749Z,84.50
2019-02-18T10:16:59.879Z,86.30
2019-02-18T10:19:45.222Z,86.80
2019-02-18T10:22:23.501Z,87.30
2019-02-18T10:25:03.435Z,86.80
2019-02-18T10:27:44.442Z,86.90
2019-02-18T10:30:33.833Z,85.80
2019-02-18T10:33:14.723Z,87.30
2019-02-18T10:35:49.941Z,87.30
2019-02-18T10:38:24.056Z,86.20
2019-02-18T10:41:06.634Z,85.70
2019-02-18T10:43:36.555Z,86.30
2019-02-18T10:46:11.301Z,85.70
2019-02-18T10:48:45.891Z,85.80
2019-02-18T10:51:20.836Z,85.30
2019-02-18T10:53:58.694Z,83.80
2019-02-18T10:56:34.480Z,81.60
2019-02-18T10:59:18.531Z,82.00
2019-02-18T11:01:57.987Z,80.40
2019-02-18T11:04:33.842Z,80.30
2019-02-18T11:07:08.251Z,81.20
2019-02-18T11:09:43.680Z,80.30
2019-02-18T11:12:19.321Z,78.80
2019-02-18T11:14:54.896Z,77.80
2019-02-18T11:17:38.709Z,78.00
2019-02-18T11:20:32.147Z,76.10
2019-02-18T11:23:05.105Z,76.70
2019-02-18T11:25:39.461Z,76.30
2019-02-18T11:28:14.259Z,76.80
2019-02-18T11:31:00.264Z,76.50
2019-02-18T11:33:50.964Z,76.50
2019-02-18T11:36:27.082Z,76.80
2019-02-18T11:39:02.821Z,76.90
2019-02-18T11:41:39.221Z,76.00
2019-02-18T11:44:15.839Z,75.90
2019-02-18T11:46:53.195Z,75.40
2019-02-18T11:49:31.076Z,75.00
2019-02-18T11:52:07.252Z,74.90
2019-02-18T11:54:41.698Z,73.10
2019-02-18T11:57:18.954Z,72.70
2019-02-18T11:59:58.152Z,73.10
2019-02-18T12:02:33.837Z,73.50
2019-02-18T12:05:12.659Z,73.70
2019-02-18T12:07:48.806Z,73.10
2019-02-18T12:10:23.917Z,72.40
2019-02-18T12:12:57.955Z,72.90
2019-02-18T12:15:35.142Z,70.60
2019-02-18T12:18:10.896Z,70.20
2019-02-18T12:20:46.524Z,70.90
2019-02-18T12:23:20.990Z,70.00
2019-02-18T12:25:55.262Z,70.40
2019-02-18T12:28:29.477Z,71.10
2019-02-18T12:31:04.875Z,72.60
2019-02-18T12:33:39.151Z,73.60
2019-02-18T12:36:18.479Z,73.90
2019-02-18T12:38:53.760Z,74.60
2019-02-18T12:41:28.854Z,76.10
2019-02-18T12:44:03.520Z,78.00
2019-02-18T12:46:38.817Z,78.20
2019-02-18T12:49:12.941Z,77.20
2019-02-18T12:51:50.195Z,79.30
2019-02-18T12:54:24.368Z,81.10
2019-02-18T12:56:59.824Z,81.70
2019-02-18T12:59:34.401Z,82.00
2019-02-18T13:02:10.445Z,81.90
2019-02-18T13:04:46.261Z,81.50
2019-02-18T13:07:21.035Z,80.40
2019-02-18T13:09:55.581Z,80.80
2019-02-18T13:12:30.393Z,79.20
2019-02-18T13:15:06.902Z,79.80
2019-02-18T13:17:42.840Z,80.60
2019-02-18T13:20:19.839Z,80.70
2019-02-18T13:22:54.652Z,80.90
2019-02-18T13:25:29.347Z,80.60
2019-02-18T13:28:08.448Z,79.50
2019-02-18T13:30:42.030Z,78.70
2019-02-18T13:33:17.750Z,78.70
2019-02-18T13:35:51.820Z,78.30
2019-02-18T13:38:25.535Z,78.50
2019-02-18T13:41:03.316Z,79.80
2019-02-18T13:43:37.216Z,80.60
2019-02-18T13:46:11.652Z,81.00
2019-02-18T13:48:46.164Z,81.70
2019-02-18T13:51:24.441Z,83.10
2019-02-18T13:54:00.025Z,85.60
2019-02-18T13:56:34.348Z,87.10
2019-02-18T13:59:09.600Z,87.60
2019-02-18T14:01:46.015Z,89.00
2019-02-18T14:04:20.869Z,90.20
2019-02-18T14:06:57.649Z,90.40
2019-02-18T14:09:38.272Z,90.80
2019-02-18T14:12:16.530Z,91.00
2019-02-18T14:14:50.251Z,91.00
2019-02-18T14:17:24.364Z,91.10
2019-02-18T14:20:00.241Z,91.20
2019-02-18T14:22:38.216Z,91.60
2019-02-18T14:25:13.464Z,91.70
2019-02-18T14:27:48.220Z,92.00
2019-02-18T14:30:22.530Z,92.40
2019-02-18T14:32:58.009Z,92.60
2019-02-18T14:35:32.510Z,92.80
2019-02-18T14:38:08.073Z,92.70
2019-02-18T14:40:42.786Z,92.90
2019-02-18T14:43:18.333Z,92.70
2019-02-18T14:45:53.527Z,92.90
2019-02-18T14:48:27.485Z,92.90
2019-02-18T14:51:01.462Z,93.30
2019-02-18T14:53:36.327Z,93.50
2019-02-18T14:56:14.310Z,93.30
2019-02-18T14:58:54.560Z,93.50
2019-02-18T15:01:31.778Z,93.50
2019-02-18T15:04:07.548Z,93.40
2019-02-18T15:06:50.890Z,93.60
2019-02-18T15:09:26.212Z,93.70
2019-02-18T15:12:01.808Z,93.80
2019-02-18T15:14:35.994Z,93.80
2019-02-18T15:17:10.709Z,93.90
2019-02-18T15:19:43.927Z,93.60
2019-02-18T15:22:18.598Z,93.80
2019-02-18T15:24:52.722Z,94.10
2019-02-18T15:27:28.886Z,94.20
2019-02-18T15:30:04.986Z,94.10
2019-02-18T15:32:41.481Z,94.20
2019-02-18T15:35:17.346Z,94.00
2019-02-18T15:37:51.818Z,94.00
2019-02-18T15:40:27.524Z,94.00
2019-02-18T15:43:02.943Z,93.90
2019-02-18T15:45:39.397Z,93.80
2019-02-18T15:48:13.534Z,93.80
2019-02-18T15:50:46.901Z,93.80
2019-02-18T15:53:22.073Z,93.60
2019-02-18T15:55:55.669Z,93.70
2019-02-18T15:58:30.289Z,93.90
2019-02-18T16:01:05.394Z,94.30
2019-02-18T16:03:40.377Z,94.60
2019-02-18T16:06:14.207Z,95.00
2019-02-18T16:08:48.775Z,95.30
2019-02-18T16:11:24.218Z,95.50
2019-02-18T16:13:59.782Z,95.80
2019-02-18T16:16:33.985Z,95.80
2019-02-18T16:19:10.085Z,96.00
2019-02-18T16:21:46.716Z,96.10
2019-02-18T16:24:20.925Z,96.20
2019-02-18T16:26:55.159Z,96.40
2019-02-18T16:29:30.512Z,96.40
2019-02-18T16:32:06.891Z,96.50
2019-02-18T16:34:41.440Z,96.60
2019-02-18T16:37:17.837Z,96.70
2019-02-18T16:39:52.087Z,97.00
2019-02-18T16:42:26.603Z,97.20
2019-02-18T16:44:59.985Z,97.30
2019-02-18T16:47:35.537Z,97.40
2019-02-18T16:50:11.561Z,97.40
2019-02-18T16:52:46.541Z,97.40
2019-02-18T16:55:21.138Z,97.60
2019-02-18T16:57:56.187Z,97.60
2019-02-18T17:00:36.211Z,97.70
2019-02-18T17:03:11.269Z,97.70
2019-02-18T17:05:45.709Z,97.70
2019-02-18T17:08:21.859Z,97.80
2019-02-18T17:10:55.915Z,97.80
2019-02-18T17:13:30.561Z,97.80
2019-02-18T17:16:05.347Z,97.90
2019-02-18T17:18:40.266Z,98.00
2019-02-18T17:21:13.905Z,97.90
2019-02-18T17:23:47.864Z,98.00
2019-02-18T17:26:24.283Z,98.40
2019-02-18T17:28:59.587Z,98.30
2019-02-18T17:31:34.161Z,98.20
2019-02-18T17:34:08.883Z,98.40
2019-02-18T17:36:43.384Z,98.40
2019-02-18T17:39:17.504Z,98.50
2019-02-18T17:41:52.147Z,98.30
2019-02-18T17:44:26.983Z,98.40
2019-02-18T17:47:02.657Z,98.40
2019-02-18T17:49:38.821Z,98.40
2019-02-18T17:52:13.511Z,98.40
2019-02-18T17:54:47.986Z,98.40
2019-02-18T17:57:24.437Z,98.50
2019-02-18T17:59:59.383Z,98.50
2019-02-18T18:02:33.587Z,98.50
2019-02-18T18:05:09.558Z,98.60
2019-02-18T18:07:45.627Z,98.60
2019-02-18T18:10:20.039Z,98.70
2019-02-18T18:12:56.017Z,98.70
2019-02-18T18:15:30.733Z,98.80
2019-02-18T18:18:07.055Z,98.90
2019-02-18T18:20:41.778Z,99.00
2019-02-18T18:23:16.496Z,99.00
2019-02-18T18:25:52.445Z,99.10
2019-02-18T18:28:26.557Z,99.10
2019-02-18T18:31:01.227Z,99.10
2019-02-18T18:33:36.748Z,99.30
2019-02-18T18:36:12.327Z,99.30
2019-02-18T18:38:46.409Z,99.40
2019-02-18T18:41:21.110Z,99.40
2019-02-18T18:43:57.141Z,99.40
2019-02-18T18:46:31.016Z,99.50
2019-02-18T18:49:06.920Z,99.50
2019-02-18T18:51:42.033Z,99.60
2019-02-18T18:54:15.837Z,99.70
2019-02-18T18:56:53.603Z,99.80
2019-02-18T18:59:27.332Z,99.70
2019-02-18T19:02:03.690Z,99.60
2019-02-18T19:04:38.321Z,99.90
2019-02-18T19:07:13.171Z,99.80
2019-02-18T19:09:46.861Z,99.80
2019-02-18T19:12:22.068Z,99.90
2019-02-18T19:14:57.950Z,99.90
2019-02-18T19:17:31.139Z,99.90
2019-02-18T19:20:06.245Z,99.90
2019-02-18T19:22:40.705Z,99.90
2019-02-18T19:25:18.153Z,99.90
2019-02-18T19:27:51.876Z,99.90
2019-02-18T19:30:27.703Z,99.90
2019-02-18T19:33:01.302Z,99.90
2019-02-18T19:35:38.869Z,99.90
2019-02-18T19:38:13.573Z,99.90
2019-02-18T19:40:47.411Z,99.90
2019-02-18T19:43:21.745Z,99.90
2019-02-18T19:45:58.034Z,99.90
2019-02-18T19:48:34.091Z,99.90
2019-02-18T19:51:13.735Z,99.90
2019-02-18T19:53:49.666Z,99.90
2019-02-18T19:56:24.323Z,99.90
2019-02-18T19:58:58.689Z,99.90
2019-02-18T20:01:35.081Z,99.90
2019-02-18T20:04:09.270Z,99.90
2019-02-18T20:06:43.343Z,99.90
2019-02-18T20:09:17.394Z,99.90
2019-02-18T20:11:52.022Z,99.90
2019-02-18T20:14:26.158Z,99.90
2019-02-18T20:17:02.786Z,99.90
2019-02-18T20:19:36.943Z,99.90
2019-02-18T20:22:13.946Z,99.90
2019-02-18T20:24:48.939Z,99.90
2019-02-18T20:27:23.813Z,99.90
2019-02-18T20:29:58.661Z,99.90
2019-02-18T20:32:32.507Z,99.90
2019-02-18T20:35:07.385Z,99.90
2019-02-18T20:37:43.558Z,99.90
2019-02-18T20:40:18.406Z,99.90
2019-02-18T20:42:52.448Z,99.90
2019-02-18T20:45:26.645Z,99.90
2019-02-18T20:48:00.387Z,99.90
2019-02-18T20:50:35.018Z,99.90
2019-02-18T20:53:09.498Z,99.90
2019-02-18T20:55:44.279Z,99.90
2019-02-18T20:58:21.049Z,99.90
2019-02-18T21:00:54.462Z,99.90
2019-02-18T21:03:30.653Z,99.90
2019-02-18T21:06:04.655Z,99.90
2019-02-18T21:08:38.711Z,99.90
2019-02-18T21:11:12.918Z,99.90
2019-02-18T21:13:46.784Z,99.90
2019-02-18T21:16:20.996Z,99.90
2019-02-18T21:18:54.805Z,99.90
2019-02-18T21:21:29.513Z,99.90
2019-02-18T21:24:03.353Z,99.90
2019-02-18T21:26:37.623Z,99.90
2019-02-18T21:29:11.420Z,99.90
2019-02-18T21:31:45.712Z,99.90
2019-02-18T21:34:19.931Z,99.90
2019-02-18T21:36:55.560Z,99.90
2019-02-18T21:39:29.959Z,99.90
2019-02-18T21:42:04.144Z,99.90
2019-02-18T21:44:37.859Z,99.90
2019-02-18T21:47:12.761Z,99.90
2019-02-18T21:49:47.083Z,99.90
2019-02-18T21:52:21.192Z,99.90
2019-02-18T21:54:55.114Z,99.90
2019-02-18T21:57:29.960Z,99.90
2019-02-18T22:00:05.017Z,99.90
2019-02-18T22:02:39.059Z,99.90
2019-02-18T22:05:13.343Z,99.90
2019-02-18T22:07:48.081Z,99.90
2019-02-18T22:10:22.615Z,99.90
2019-02-18T22:12:56.976Z,99.90
2019-02-18T22:15:32.832Z,99.90
2019-02-18T22:18:06.851Z,99.90
2019-02-18T22:20:40.481Z,99.90
2019-02-18T22:23:14.635Z,99.90
2019-02-18T22:25:48.375Z,99.90
2019-02-18T22:28:22.620Z,99.90
2019-02-18T22:30:56.216Z,99.90
2019-02-18T22:33:30.365Z,99.90
2019-02-18T22:36:06.868Z,99.90
2019-02-18T22:38:41.578Z,99.90
2019-02-18T22:41:15.659Z,99.90
2019-02-18T22:43:49.891Z,99.90
2019-02-18T22:46:23.747Z,99.90
2019-02-18T22:48:59.555Z,99.90
2019-02-18T22:51:33.783Z,99.90
2019-02-18T22:54:08.104Z,99.90
2019-02-18T22:56:41.926Z,99.90
2019-02-18T22:59:16.573Z,99.90
2019-02-18T23:01:51.081Z,99.90
2019-02-18T23:04:25.663Z,99.90
2019-02-18T23:07:00.258Z,99.90
2019-02-18T23:09:33.761Z,99.90
2019-02-18T23:12:07.592Z,99.90
2019-02-18T23:14:41.586Z,99.90
2019-02-18T23:17:15.187Z,99.90
2019-02-18T23:19:49.330Z,99.90
2019-02-18T23:22:25.227Z,99.90
2019-02-18T23:24:59.618Z,99.90
2019-02-18T23:27:33.505Z,99.90
2019-02-18T23:30:07.846Z,99.90
2019-02-18T23:32:41.841Z,99.90
2019-02-18T23:35:16.309Z,99.90
2019-02-18T23:37:52.435Z,99.90
2019-02-18T23:40:27.651Z,99.90
2019-02-18T23:43:03.970Z,99.90
2019-02-18T23:45:38.325Z,99.90
2019-02-18T23:48:12.529Z,99.90
2019-02-18T23:50:46.413Z,99.90
2019-02-18T23:53:20.486Z,99.90
2019-02-18T23:55:54.079Z,99.90
2019-02-18T23:58:28.333Z,99.90
